sensor_id;sensor_type;location;lat;lon;timestamp;temperature;humidity
18577;DHT22;9418;52.694;13.294;2022-10-17T00:00:09;11.60;99.90
18577;DHT22;9418;52.694;13.294;2022-10-17T00:02:36;11.60;99.90
18577;DHT22;9418;52.694;13.294;2022-10-17T00:05:03;11.70;99.90
18577;DHT22;9418;52.694;13.294;2022-10-17T00:07:30;11.70;99.90
18577;DHT22;9418;52.694;13.294;2022-10-17T00:09:56;11.70;99.90
18577;DHT22;9418;52.694;13.294;2022-10-17T00:12:23;11.70;99.90
18577;DHT22;9418;52.694;13.294;2022-10-17T00:14:49;11.70;99.90
18577;DHT22;9418;52.694;13.294;2022-10-17T00:17:17;11.70;99.90
18577;DHT22;9418;52.694;13.294;2022-10-17T00:19:44;11.70;99.90
18577;DHT22;9418;52.694;13.294;2022-10-17T00:22:11;11.70;99.90
18577;DHT22;9418;52.694;13.294;2022-10-17T00:24:38;11.60;99.90
18577;DHT22;9418;52.694;13.294;2022-10-17T00:27:04;11.70;99.90
18577;DHT22;9418;52.694;13.294;2022-10-17T00:29:31;11.70;99.90
18577;DHT22;9418;52.694;13.294;2022-10-17T00:31:57;11.70;99.90
18577;DHT22;9418;52.694;13.294;2022-10-17T00:34:28;11.70;99.90
18577;DHT22;9418;52.694;13.294;2022-10-17T00:36:55;11.70;99.90
18577;DHT22;9418;52.694;13.294;2022-10-17T00:39:21;11.80;99.90
18577;DHT22;9418;52.694;13.294;2022-10-17T00:41:48;11.80;99.90
18577;DHT22;9418;52.694;13.294;2022-10-17T00:47:21;11.80;99.90
18577;DHT22;9418;52.694;13.294;2022-10-17T00:49:49;11.80;99.90
18577;DHT22;9418;52.694;13.294;2022-10-17T00:52:19;11.80;99.90
18577;DHT22;9418;52.694;13.294;2022-10-17T00:54:48;11.80;99.90
18577;DHT22;9418;52.694;13.294;2022-10-17T00:57:17;11.80;99.90
18577;DHT22;9418;52.694;13.294;2022-10-17T00:59:47;11.80;99.90
18577;DHT22;9418;52.694;13.294;2022-10-17T01:02:17;11.80;99.90
18577;DHT22;9418;52.694;13.294;2022-10-17T01:04:46;11.80;99.90
18577;DHT22;9418;52.694;13.294;2022-10-17T01:07:15;11.80;99.90
18577;DHT22;9418;52.694;13.294;2022-10-17T01:09:44;11.80;99.90
18577;DHT22;9418;52.694;13.294;2022-10-17T01:12:17;11.90;99.90
18577;DHT22;9418;52.694;13.294;2022-10-17T01:14:56;11.90;99.90
18577;DHT22;9418;52.694;13.294;2022-10-17T01:17:33;11.90;99.90
18577;DHT22;9418;52.694;13.294;2022-10-17T01:20:26;11.90;99.90
18577;DHT22;9418;52.694;13.294;2022-10-17T01:23:09;11.90;99.90
18577;DHT22;9418;52.694;13.294;2022-10-17T01:25:44;12.00;99.90
18577;DHT22;9418;52.694;13.294;2022-10-17T01:28:30;12.00;99.90
18577;DHT22;9418;52.694;13.294;2022-10-17T01:31:06;12.00;99.90
18577;DHT22;9418;52.694;13.294;2022-10-17T01:33:45;12.00;99.90
18577;DHT22;9418;52.694;13.294;2022-10-17T01:36:22;12.00;99.90
18577;DHT22;9418;52.694;13.294;2022-10-17T01:38:56;11.90;99.90
18577;DHT22;9418;52.694;13.294;2022-10-17T01:41:28;12.00;99.90
18577;DHT22;9418;52.694;13.294;2022-10-17T01:43:59;12.00;99.90
18577;DHT22;9418;52.694;13.294;2022-10-17T01:46:33;12.00;99.90
18577;DHT22;9418;52.694;13.294;2022-10-17T01:49:02;12.00;99.90
18577;DHT22;9418;52.694;13.294;2022-10-17T01:51:33;12.00;99.90
18577;DHT22;9418;52.694;13.294;2022-10-17T01:54:06;12.00;99.90
18577;DHT22;9418;52.694;13.294;2022-10-17T01:56:35;12.00;99.90
18577;DHT22;9418;52.694;13.294;2022-10-17T01:59:06;12.00;99.90
18577;DHT22;9418;52.694;13.294;2022-10-17T02:01:37;12.00;99.90
18577;DHT22;9418;52.694;13.294;2022-10-17T02:04:07;12.00;99.90
18577;DHT22;9418;52.694;13.294;2022-10-17T02:06:34;12.00;99.90
18577;DHT22;9418;52.694;13.294;2022-10-17T02:09:17;12.00;99.90
18577;DHT22;9418;52.694;13.294;2022-10-17T02:11:51;12.00;99.90
18577;DHT22;9418;52.694;13.294;2022-10-17T02:14:27;12.00;99.90
18577;DHT22;9418;52.694;13.294;2022-10-17T02:17:07;12.00;99.90
18577;DHT22;9418;52.694;13.294;2022-10-17T02:19:43;12.00;99.90
18577;DHT22;9418;52.694;13.294;2022-10-17T02:22:17;12.00;99.90
18577;DHT22;9418;52.694;13.294;2022-10-17T02:24:49;12.10;99.90
18577;DHT22;9418;52.694;13.294;2022-10-17T02:27:25;12.10;99.90
18577;DHT22;9418;52.694;13.294;2022-10-17T02:29:57;12.10;99.90
18577;DHT22;9418;52.694;13.294;2022-10-17T02:32:33;12.20;99.90
18577;DHT22;9418;52.694;13.294;2022-10-17T02:35:02;12.30;99.90
18577;DHT22;9418;52.694;13.294;2022-10-17T02:37:31;12.40;99.90
18577;DHT22;9418;52.694;13.294;2022-10-17T02:39:59;12.40;99.90
18577;DHT22;9418;52.694;13.294;2022-10-17T02:42:27;12.60;99.90
18577;DHT22;9418;52.694;13.294;2022-10-17T02:44:58;12.70;99.90
18577;DHT22;9418;52.694;13.294;2022-10-17T02:47:30;12.80;99.90
18577;DHT22;9418;52.694;13.294;2022-10-17T02:49:57;13.00;99.90
18577;DHT22;9418;52.694;13.294;2022-10-17T02:52:28;13.10;99.90
18577;DHT22;9418;52.694;13.294;2022-10-17T02:55:03;13.20;99.90
18577;DHT22;9418;52.694;13.294;2022-10-17T02:57:35;13.40;23.40
18577;DHT22;9418;52.694;13.294;2022-10-17T03:00:06;13.50;28.30
18577;DHT22;9418;52.694;13.294;2022-10-17T03:02:44;13.60;48.30
18577;DHT22;9418;52.694;13.294;2022-10-17T03:05:12;13.70;51.90
18577;DHT22;9418;52.694;13.294;2022-10-17T03:07:39;13.80;50.80
18577;DHT22;9418;52.694;13.294;2022-10-17T03:10:05;13.80;50.50
18577;DHT22;9418;52.694;13.294;2022-10-17T03:12:32;13.80;49.70
18577;DHT22;9418;52.694;13.294;2022-10-17T03:14:59;13.80;47.40
18577;DHT22;9418;52.694;13.294;2022-10-17T03:17:25;13.80;45.80
18577;DHT22;9418;52.694;13.294;2022-10-17T03:19:53;13.80;43.50
18577;DHT22;9418;52.694;13.294;2022-10-17T03:22:20;13.80;32.50
18577;DHT22;9418;52.694;13.294;2022-10-17T03:24:46;13.80;24.50
18577;DHT22;9418;52.694;13.294;2022-10-17T03:27:13;13.80;25.00
18577;DHT22;9418;52.694;13.294;2022-10-17T03:29:39;13.80;20.00
18577;DHT22;9418;52.694;13.294;2022-10-17T03:32:06;13.80;89.00
18577;DHT22;9418;52.694;13.294;2022-10-17T03:34:33;13.80;96.80
18577;DHT22;9418;52.694;13.294;2022-10-17T03:37:01;13.80;99.90
18577;DHT22;9418;52.694;13.294;2022-10-17T03:39:27;13.80;99.90
18577;DHT22;9418;52.694;13.294;2022-10-17T03:41:54;13.80;99.90
18577;DHT22;9418;52.694;13.294;2022-10-17T03:44:20;13.80;99.90
18577;DHT22;9418;52.694;13.294;2022-10-17T03:46:47;13.80;99.90
18577;DHT22;9418;52.694;13.294;2022-10-17T03:49:14;13.80;99.90
18577;DHT22;9418;52.694;13.294;2022-10-17T03:51:40;13.70;99.90
18577;DHT22;9418;52.694;13.294;2022-10-17T03:54:08;13.70;99.90
18577;DHT22;9418;52.694;13.294;2022-10-17T03:56:34;13.70;99.90
18577;DHT22;9418;52.694;13.294;2022-10-17T03:59:01;13.70;99.90
18577;DHT22;9418;52.694;13.294;2022-10-17T04:01:28;13.70;99.90
18577;DHT22;9418;52.694;13.294;2022-10-17T04:03:55;13.70;99.90
18577;DHT22;9418;52.694;13.294;2022-10-17T04:06:22;13.70;99.90
18577;DHT22;9418;52.694;13.294;2022-10-17T04:08:49;13.70;99.90
18577;DHT22;9418;52.694;13.294;2022-10-17T04:11:19;13.70;99.90
18577;DHT22;9418;52.694;13.294;2022-10-17T04:13:47;13.70;99.90
18577;DHT22;9418;52.694;13.294;2022-10-17T04:16:17;13.70;99.90
18577;DHT22;9418;52.694;13.294;2022-10-17T04:18:44;13.70;99.90
18577;DHT22;9418;52.694;13.294;2022-10-17T04:21:11;13.70;99.90
18577;DHT22;9418;52.694;13.294;2022-10-17T04:23:38;13.70;99.90
18577;DHT22;9418;52.694;13.294;2022-10-17T04:26:05;13.60;99.90
18577;DHT22;9418;52.694;13.294;2022-10-17T04:28:33;13.60;99.90
18577;DHT22;9418;52.694;13.294;2022-10-17T04:31:02;13.60;99.90
18577;DHT22;9418;52.694;13.294;2022-10-17T04:33:29;13.60;99.90
18577;DHT22;9418;52.694;13.294;2022-10-17T04:35:57;13.60;99.90
18577;DHT22;9418;52.694;13.294;2022-10-17T04:38:23;13.60;99.90
18577;DHT22;9418;52.694;13.294;2022-10-17T04:40:50;13.60;99.90
18577;DHT22;9418;52.694;13.294;2022-10-17T04:43:17;13.60;99.90
18577;DHT22;9418;52.694;13.294;2022-10-17T04:45:45;13.50;99.90
18577;DHT22;9418;52.694;13.294;2022-10-17T04:48:11;13.50;99.90
18577;DHT22;9418;52.694;13.294;2022-10-17T04:50:38;13.50;99.90
18577;DHT22;9418;52.694;13.294;2022-10-17T04:53:04;13.60;99.90
18577;DHT22;9418;52.694;13.294;2022-10-17T04:55:36;13.60;99.90
18577;DHT22;9418;52.694;13.294;2022-10-17T04:58:02;13.60;99.90
18577;DHT22;9418;52.694;13.294;2022-10-17T05:00:29;13.70;99.90
18577;DHT22;9418;52.694;13.294;2022-10-17T05:02:57;13.60;99.90
18577;DHT22;9418;52.694;13.294;2022-10-17T05:05:23;13.70;99.60
18577;DHT22;9418;52.694;13.294;2022-10-17T05:07:50;13.70;96.90
18577;DHT22;9418;52.694;13.294;2022-10-17T05:10:16;13.80;94.80
18577;DHT22;9418;52.694;13.294;2022-10-17T05:12:43;13.80;91.70
18577;DHT22;9418;52.694;13.294;2022-10-17T05:15:11;13.80;90.20
18577;DHT22;9418;52.694;13.294;2022-10-17T05:17:38;13.80;88.20
18577;DHT22;9418;52.694;13.294;2022-10-17T05:20:07;13.80;89.50
18577;DHT22;9418;52.694;13.294;2022-10-17T05:22:34;13.70;88.80
18577;DHT22;9418;52.694;13.294;2022-10-17T05:25:01;13.80;87.30
18577;DHT22;9418;52.694;13.294;2022-10-17T05:27:27;13.80;83.50
18577;DHT22;9418;52.694;13.294;2022-10-17T05:29:54;13.80;84.00
18577;DHT22;9418;52.694;13.294;2022-10-17T05:32:20;13.70;81.40
18577;DHT22;9418;52.694;13.294;2022-10-17T05:34:47;13.70;81.50
18577;DHT22;9418;52.694;13.294;2022-10-17T05:37:15;13.70;81.10
18577;DHT22;9418;52.694;13.294;2022-10-17T05:39:41;13.70;78.90
18577;DHT22;9418;52.694;13.294;2022-10-17T05:42:08;13.70;74.50
18577;DHT22;9418;52.694;13.294;2022-10-17T05:44:34;13.70;72.20
18577;DHT22;9418;52.694;13.294;2022-10-17T05:47:03;13.70;71.40
18577;DHT22;9418;52.694;13.294;2022-10-17T05:49:30;13.70;68.90
18577;DHT22;9418;52.694;13.294;2022-10-17T05:51:56;13.70;68.70
18577;DHT22;9418;52.694;13.294;2022-10-17T05:54:25;13.70;66.20
18577;DHT22;9418;52.694;13.294;2022-10-17T05:56:52;13.70;64.30
18577;DHT22;9418;52.694;13.294;2022-10-17T05:59:19;13.70;62.10
18577;DHT22;9418;52.694;13.294;2022-10-17T06:01:46;13.70;61.20
18577;DHT22;9418;52.694;13.294;2022-10-17T06:04:12;13.70;59.10
18577;DHT22;9418;52.694;13.294;2022-10-17T06:06:39;13.70;58.70
18577;DHT22;9418;52.694;13.294;2022-10-17T06:09:06;13.70;58.90
18577;DHT22;9418;52.694;13.294;2022-10-17T06:11:34;13.70;60.00
18577;DHT22;9418;52.694;13.294;2022-10-17T06:14:01;13.70;59.30
18577;DHT22;9418;52.694;13.294;2022-10-17T06:16:28;13.70;58.70
18577;DHT22;9418;52.694;13.294;2022-10-17T06:18:55;13.70;58.60
18577;DHT22;9418;52.694;13.294;2022-10-17T06:21:23;13.70;58.60
18577;DHT22;9418;52.694;13.294;2022-10-17T06:23:50;13.70;58.40
18577;DHT22;9418;52.694;13.294;2022-10-17T06:26:18;13.70;58.40
18577;DHT22;9418;52.694;13.294;2022-10-17T06:28:46;13.70;57.50
18577;DHT22;9418;52.694;13.294;2022-10-17T06:31:14;13.70;58.60
18577;DHT22;9418;52.694;13.294;2022-10-17T06:33:42;13.80;58.30
18577;DHT22;9418;52.694;13.294;2022-10-17T06:36:12;13.80;58.90
18577;DHT22;9418;52.694;13.294;2022-10-17T06:38:39;13.80;58.90
18577;DHT22;9418;52.694;13.294;2022-10-17T06:41:09;13.80;59.00
18577;DHT22;9418;52.694;13.294;2022-10-17T06:43:38;13.80;60.00
18577;DHT22;9418;52.694;13.294;2022-10-17T06:46:06;13.90;61.90
18577;DHT22;9418;52.694;13.294;2022-10-17T06:48:33;13.90;63.60
18577;DHT22;9418;52.694;13.294;2022-10-17T06:51:01;13.90;63.40
18577;DHT22;9418;52.694;13.294;2022-10-17T06:53:29;13.90;64.60
18577;DHT22;9418;52.694;13.294;2022-10-17T06:55:56;14.00;65.50
18577;DHT22;9418;52.694;13.294;2022-10-17T06:58:27;14.00;67.50
18577;DHT22;9418;52.694;13.294;2022-10-17T07:00:57;14.10;70.20
18577;DHT22;9418;52.694;13.294;2022-10-17T07:03:26;14.10;71.20
18577;DHT22;9418;52.694;13.294;2022-10-17T07:05:54;14.10;73.50
18577;DHT22;9418;52.694;13.294;2022-10-17T07:08:21;14.20;74.80
18577;DHT22;9418;52.694;13.294;2022-10-17T07:10:48;14.20;75.10
18577;DHT22;9418;52.694;13.294;2022-10-17T07:13:15;14.30;76.40
18577;DHT22;9418;52.694;13.294;2022-10-17T07:15:41;14.40;77.70
18577;DHT22;9418;52.694;13.294;2022-10-17T07:18:08;14.50;80.00
18577;DHT22;9418;52.694;13.294;2022-10-17T07:20:36;14.70;82.50
18577;DHT22;9418;52.694;13.294;2022-10-17T07:23:03;14.70;83.70
18577;DHT22;9418;52.694;13.294;2022-10-17T07:25:30;14.80;87.00
18577;DHT22;9418;52.694;13.294;2022-10-17T07:27:56;14.90;90.20
18577;DHT22;9418;52.694;13.294;2022-10-17T07:30:23;15.00;99.90
18577;DHT22;9418;52.694;13.294;2022-10-17T07:32:52;15.10;99.90
18577;DHT22;9418;52.694;13.294;2022-10-17T07:35:19;15.20;99.90
18577;DHT22;9418;52.694;13.294;2022-10-17T07:37:47;15.30;99.90
18577;DHT22;9418;52.694;13.294;2022-10-17T07:40:14;15.40;99.90
18577;DHT22;9418;52.694;13.294;2022-10-17T07:42:40;15.40;99.90
18577;DHT22;9418;52.694;13.294;2022-10-17T07:45:08;15.60;99.90
18577;DHT22;9418;52.694;13.294;2022-10-17T07:47:34;15.80;99.90
18577;DHT22;9418;52.694;13.294;2022-10-17T07:50:01;16.10;99.90
18577;DHT22;9418;52.694;13.294;2022-10-17T07:52:27;17.00;99.90
18577;DHT22;9418;52.694;13.294;2022-10-17T07:54:55;17.80;51.20
18577;DHT22;9418;52.694;13.294;2022-10-17T07:57:22;18.30;99.90
18577;DHT22;9418;52.694;13.294;2022-10-17T07:59:49;18.40;99.90
18577;DHT22;9418;52.694;13.294;2022-10-17T08:02:20;18.50;99.90
18577;DHT22;9418;52.694;13.294;2022-10-17T08:04:47;18.20;99.90
18577;DHT22;9418;52.694;13.294;2022-10-17T08:07:14;18.00;99.90
18577;DHT22;9418;52.694;13.294;2022-10-17T08:09:41;17.70;99.90
18577;DHT22;9418;52.694;13.294;2022-10-17T08:12:09;17.60;99.90
18577;DHT22;9418;52.694;13.294;2022-10-17T08:14:36;17.50;99.90
18577;DHT22;9418;52.694;13.294;2022-10-17T08:17:03;17.50;99.90
18577;DHT22;9418;52.694;13.294;2022-10-17T08:19:30;17.60;99.90
18577;DHT22;9418;52.694;13.294;2022-10-17T08:21:56;17.60;99.90
18577;DHT22;9418;52.694;13.294;2022-10-17T08:24:24;17.60;99.90
18577;DHT22;9418;52.694;13.294;2022-10-17T08:26:50;17.70;99.90
18577;DHT22;9418;52.694;13.294;2022-10-17T08:29:20;17.80;99.90
18577;DHT22;9418;52.694;13.294;2022-10-17T08:31:46;17.90;99.90
18577;DHT22;9418;52.694;13.294;2022-10-17T08:34:13;17.90;99.90
18577;DHT22;9418;52.694;13.294;2022-10-17T08:36:40;18.10;99.90
18577;DHT22;9418;52.694;13.294;2022-10-17T08:39:07;18.30;99.90
18577;DHT22;9418;52.694;13.294;2022-10-17T08:41:43;18.60;99.90
18577;DHT22;9418;52.694;13.294;2022-10-17T08:44:24;18.70;99.90
18577;DHT22;9418;52.694;13.294;2022-10-17T08:46:55;18.80;99.90
18577;DHT22;9418;52.694;13.294;2022-10-17T08:49:30;19.10;99.90
18577;DHT22;9418;52.694;13.294;2022-10-17T08:52:06;19.80;99.90
18577;DHT22;9418;52.694;13.294;2022-10-17T08:54:40;19.80;99.90
18577;DHT22;9418;52.694;13.294;2022-10-17T08:57:11;19.90;99.90
18577;DHT22;9418;52.694;13.294;2022-10-17T08:59:39;19.80;99.90
18577;DHT22;9418;52.694;13.294;2022-10-17T09:02:19;20.10;99.90
18577;DHT22;9418;52.694;13.294;2022-10-17T09:05:02;20.30;99.90
18577;DHT22;9418;52.694;13.294;2022-10-17T09:07:39;20.80;21.50
18577;DHT22;9418;52.694;13.294;2022-10-17T09:10:12;20.60;20.60
18577;DHT22;9418;52.694;13.294;2022-10-17T09:12:47;20.80;94.70
18577;DHT22;9418;52.694;13.294;2022-10-17T09:15:33;21.10;34.30
18577;DHT22;9418;52.694;13.294;2022-10-17T09:18:08;20.80;36.70
18577;DHT22;9418;52.694;13.294;2022-10-17T09:20:41;20.90;32.90
18577;DHT22;9418;52.694;13.294;2022-10-17T09:23:12;21.10;43.90
18577;DHT22;9418;52.694;13.294;2022-10-17T09:25:43;21.30;48.70
18577;DHT22;9418;52.694;13.294;2022-10-17T09:28:14;21.20;42.30
18577;DHT22;9418;52.694;13.294;2022-10-17T09:30:45;21.10;53.00
18577;DHT22;9418;52.694;13.294;2022-10-17T09:33:14;21.50;53.80
18577;DHT22;9418;52.694;13.294;2022-10-17T09:35:42;21.40;54.40
18577;DHT22;9418;52.694;13.294;2022-10-17T09:38:14;22.10;63.10
18577;DHT22;9418;52.694;13.294;2022-10-17T09:40:41;22.40;78.50
18577;DHT22;9418;52.694;13.294;2022-10-17T09:43:11;22.80;81.90
18577;DHT22;9418;52.694;13.294;2022-10-17T09:45:43;22.40;85.30
18577;DHT22;9418;52.694;13.294;2022-10-17T09:48:18;22.80;97.80
18577;DHT22;9418;52.694;13.294;2022-10-17T09:50:48;23.80;99.90
18577;DHT22;9418;52.694;13.294;2022-10-17T09:53:20;23.60;99.90
18577;DHT22;9418;52.694;13.294;2022-10-17T09:55:49;23.70;99.90
18577;DHT22;9418;52.694;13.294;2022-10-17T09:58:16;23.90;99.90
18577;DHT22;9418;52.694;13.294;2022-10-17T10:00:46;23.20;99.90
18577;DHT22;9418;52.694;13.294;2022-10-17T10:03:17;22.80;99.90
18577;DHT22;9418;52.694;13.294;2022-10-17T10:05:58;22.60;99.90
18577;DHT22;9418;52.694;13.294;2022-10-17T10:08:27;22.20;99.90
18577;DHT22;9418;52.694;13.294;2022-10-17T10:10:59;22.10;96.90
18577;DHT22;9418;52.694;13.294;2022-10-17T10:13:27;21.90;93.60
18577;DHT22;9418;52.694;13.294;2022-10-17T10:16:13;21.90;91.20
18577;DHT22;9418;52.694;13.294;2022-10-17T10:18:41;21.70;87.10
18577;DHT22;9418;52.694;13.294;2022-10-17T10:21:10;21.60;84.30
18577;DHT22;9418;52.694;13.294;2022-10-17T10:23:38;21.60;79.40
18577;DHT22;9418;52.694;13.294;2022-10-17T10:26:18;21.60;76.90
18577;DHT22;9418;52.694;13.294;2022-10-17T10:28:54;21.60;72.80
18577;DHT22;9418;52.694;13.294;2022-10-17T10:31:28;21.60;68.50
18577;DHT22;9418;52.694;13.294;2022-10-17T10:33:59;21.60;74.90
18577;DHT22;9418;52.694;13.294;2022-10-17T10:36:42;21.50;71.70
18577;DHT22;9418;52.694;13.294;2022-10-17T10:39:20;21.60;70.80
18577;DHT22;9418;52.694;13.294;2022-10-17T10:41:50;21.60;71.50
18577;DHT22;9418;52.694;13.294;2022-10-17T10:44:21;21.70;76.50
18577;DHT22;9418;52.694;13.294;2022-10-17T10:47:05;21.70;76.00
18577;DHT22;9418;52.694;13.294;2022-10-17T10:49:33;21.70;76.50
18577;DHT22;9418;52.694;13.294;2022-10-17T10:52:00;21.60;75.00
18577;DHT22;9418;52.694;13.294;2022-10-17T10:54:33;21.60;77.80
18577;DHT22;9418;52.694;13.294;2022-10-17T10:57:03;21.70;75.30
18577;DHT22;9418;52.694;13.294;2022-10-17T10:59:35;21.70;79.50
18577;DHT22;9418;52.694;13.294;2022-10-17T11:02:09;21.70;80.00
18577;DHT22;9418;52.694;13.294;2022-10-17T11:04:42;22.00;85.70
18577;DHT22;9418;52.694;13.294;2022-10-17T11:07:14;22.10;82.40
18577;DHT22;9418;52.694;13.294;2022-10-17T11:09:47;22.10;85.90
18577;DHT22;9418;52.694;13.294;2022-10-17T11:12:18;22.10;86.40
18577;DHT22;9418;52.694;13.294;2022-10-17T11:14:48;22.20;87.20
18577;DHT22;9418;52.694;13.294;2022-10-17T11:17:26;22.20;87.10
18577;DHT22;9418;52.694;13.294;2022-10-17T11:20:13;22.30;85.60
18577;DHT22;9418;52.694;13.294;2022-10-17T11:22:43;22.30;87.70
18577;DHT22;9418;52.694;13.294;2022-10-17T11:25:27;22.40;91.10
18577;DHT22;9418;52.694;13.294;2022-10-17T11:27:55;22.40;92.50
18577;DHT22;9418;52.694;13.294;2022-10-17T11:30:23;22.50;93.00
18577;DHT22;9418;52.694;13.294;2022-10-17T11:32:54;22.50;92.10
18577;DHT22;9418;52.694;13.294;2022-10-17T11:35:25;22.60;91.30
18577;DHT22;9418;52.694;13.294;2022-10-17T11:37:57;22.70;91.50
18577;DHT22;9418;52.694;13.294;2022-10-17T11:40:30;22.80;94.10
18577;DHT22;9418;52.694;13.294;2022-10-17T11:43:00;22.80;98.50
18577;DHT22;9418;52.694;13.294;2022-10-17T11:45:32;22.80;99.90
18577;DHT22;9418;52.694;13.294;2022-10-17T11:48:03;22.70;99.90
18577;DHT22;9418;52.694;13.294;2022-10-17T11:50:34;22.80;99.90
18577;DHT22;9418;52.694;13.294;2022-10-17T11:53:05;22.80;99.90
18577;DHT22;9418;52.694;13.294;2022-10-17T11:55:35;22.80;99.90
18577;DHT22;9418;52.694;13.294;2022-10-17T11:58:15;22.90;99.90
18577;DHT22;9418;52.694;13.294;2022-10-17T12:00:56;22.90;99.90
18577;DHT22;9418;52.694;13.294;2022-10-17T12:03:43;23.00;99.90
18577;DHT22;9418;52.694;13.294;2022-10-17T12:06:18;23.10;99.90
18577;DHT22;9418;52.694;13.294;2022-10-17T12:08:52;23.20;99.90
18577;DHT22;9418;52.694;13.294;2022-10-17T12:11:41;23.30;99.90
18577;DHT22;9418;52.694;13.294;2022-10-17T12:14:33;23.30;99.90
18577;DHT22;9418;52.694;13.294;2022-10-17T12:17:00;23.50;99.90
18577;DHT22;9418;52.694;13.294;2022-10-17T12:19:32;23.70;99.90
18577;DHT22;9418;52.694;13.294;2022-10-17T12:24:55;23.80;99.90
18577;DHT22;9418;52.694;13.294;2022-10-17T12:27:35;23.90;99.90
18577;DHT22;9418;52.694;13.294;2022-10-17T12:30:06;24.00;99.90
18577;DHT22;9418;52.694;13.294;2022-10-17T12:32:53;24.10;99.90
18577;DHT22;9418;52.694;13.294;2022-10-17T12:35:22;24.00;99.90
18577;DHT22;9418;52.694;13.294;2022-10-17T12:41:01;24.00;99.90
18577;DHT22;9418;52.694;13.294;2022-10-17T12:43:37;24.10;99.90
18577;DHT22;9418;52.694;13.294;2022-10-17T12:46:08;24.10;99.90
18577;DHT22;9418;52.694;13.294;2022-10-17T12:48:57;24.20;99.90
18577;DHT22;9418;52.694;13.294;2022-10-17T12:51:24;24.10;99.90
18577;DHT22;9418;52.694;13.294;2022-10-17T12:53:57;24.30;99.90
18577;DHT22;9418;52.694;13.294;2022-10-17T12:56:35;24.30;99.90
18577;DHT22;9418;52.694;13.294;2022-10-17T12:59:07;24.50;99.90
18577;DHT22;9418;52.694;13.294;2022-10-17T13:01:36;24.60;99.90
18577;DHT22;9418;52.694;13.294;2022-10-17T13:04:04;24.60;99.90
18577;DHT22;9418;52.694;13.294;2022-10-17T13:06:37;24.60;99.90
18577;DHT22;9418;52.694;13.294;2022-10-17T13:09:16;24.60;99.90
18577;DHT22;9418;52.694;13.294;2022-10-17T13:11:44;24.60;99.90
18577;DHT22;9418;52.694;13.294;2022-10-17T13:14:12;24.80;99.90
18577;DHT22;9418;52.694;13.294;2022-10-17T13:16:42;24.90;99.90
18577;DHT22;9418;52.694;13.294;2022-10-17T13:19:17;24.90;99.90
18577;DHT22;9418;52.694;13.294;2022-10-17T13:21:49;24.70;99.90
18577;DHT22;9418;52.694;13.294;2022-10-17T13:24:22;24.50;99.90
18577;DHT22;9418;52.694;13.294;2022-10-17T13:26:48;24.50;99.90
18577;DHT22;9418;52.694;13.294;2022-10-17T13:29:15;24.60;99.90
18577;DHT22;9418;52.694;13.294;2022-10-17T13:31:43;24.70;99.90
18577;DHT22;9418;52.694;13.294;2022-10-17T13:34:15;24.70;99.90
18577;DHT22;9418;52.694;13.294;2022-10-17T13:36:44;24.50;99.90
18577;DHT22;9418;52.694;13.294;2022-10-17T13:39:15;24.50;99.90
18577;DHT22;9418;52.694;13.294;2022-10-17T13:41:44;24.60;99.90
18577;DHT22;9418;52.694;13.294;2022-10-17T13:44:13;24.60;99.90
18577;DHT22;9418;52.694;13.294;2022-10-17T13:46:41;24.60;99.90
18577;DHT22;9418;52.694;13.294;2022-10-17T13:49:11;24.50;99.90
18577;DHT22;9418;52.694;13.294;2022-10-17T13:51:42;24.60;99.90
18577;DHT22;9418;52.694;13.294;2022-10-17T13:54:34;24.50;99.90
18577;DHT22;9418;52.694;13.294;2022-10-17T13:57:04;24.50;99.90
18577;DHT22;9418;52.694;13.294;2022-10-17T13:59:35;24.50;99.90
18577;DHT22;9418;52.694;13.294;2022-10-17T14:02:03;24.40;99.90
18577;DHT22;9418;52.694;13.294;2022-10-17T14:04:30;24.50;99.90
18577;DHT22;9418;52.694;13.294;2022-10-17T14:06:57;24.50;99.90
18577;DHT22;9418;52.694;13.294;2022-10-17T14:09:25;24.40;99.90
18577;DHT22;9418;52.694;13.294;2022-10-17T14:12:00;24.40;99.90
18577;DHT22;9418;52.694;13.294;2022-10-17T14:14:28;24.30;99.90
18577;DHT22;9418;52.694;13.294;2022-10-17T14:16:55;24.30;99.90
18577;DHT22;9418;52.694;13.294;2022-10-17T14:19:24;24.30;99.90
18577;DHT22;9418;52.694;13.294;2022-10-17T14:21:52;24.20;99.90
18577;DHT22;9418;52.694;13.294;2022-10-17T14:24:27;24.10;99.90
18577;DHT22;9418;52.694;13.294;2022-10-17T14:26:56;24.10;99.90
18577;DHT22;9418;52.694;13.294;2022-10-17T14:29:26;24.10;99.90
18577;DHT22;9418;52.694;13.294;2022-10-17T14:32:03;24.10;99.90
18577;DHT22;9418;52.694;13.294;2022-10-17T14:34:32;24.10;99.90
18577;DHT22;9418;52.694;13.294;2022-10-17T14:37:00;24.00;99.90
18577;DHT22;9418;52.694;13.294;2022-10-17T14:39:27;24.00;99.90
18577;DHT22;9418;52.694;13.294;2022-10-17T14:41:54;23.90;99.90
18577;DHT22;9418;52.694;13.294;2022-10-17T14:44:25;23.70;99.90
18577;DHT22;9418;52.694;13.294;2022-10-17T14:46:55;23.70;99.90
18577;DHT22;9418;52.694;13.294;2022-10-17T14:49:31;23.70;99.90
18577;DHT22;9418;52.694;13.294;2022-10-17T14:52:22;23.60;99.90
18577;DHT22;9418;52.694;13.294;2022-10-17T14:54:50;23.50;99.90
18577;DHT22;9418;52.694;13.294;2022-10-17T14:57:21;23.50;99.90
18577;DHT22;9418;52.694;13.294;2022-10-17T14:59:48;23.40;99.90
18577;DHT22;9418;52.694;13.294;2022-10-17T15:02:15;23.30;99.90
18577;DHT22;9418;52.694;13.294;2022-10-17T15:04:43;23.30;99.90
18577;DHT22;9418;52.694;13.294;2022-10-17T15:07:12;23.30;99.90
18577;DHT22;9418;52.694;13.294;2022-10-17T15:09:40;23.20;99.90
18577;DHT22;9418;52.694;13.294;2022-10-17T15:12:12;23.20;99.90
18577;DHT22;9418;52.694;13.294;2022-10-17T15:14:39;23.10;99.90
18577;DHT22;9418;52.694;13.294;2022-10-17T15:17:10;23.10;99.90
18577;DHT22;9418;52.694;13.294;2022-10-17T15:19:38;22.90;99.90
18577;DHT22;9418;52.694;13.294;2022-10-17T15:22:06;22.90;99.90
18577;DHT22;9418;52.694;13.294;2022-10-17T15:24:32;22.80;99.90
18577;DHT22;9418;52.694;13.294;2022-10-17T15:26:59;22.70;99.90
18577;DHT22;9418;52.694;13.294;2022-10-17T15:29:25;22.60;99.90
18577;DHT22;9418;52.694;13.294;2022-10-17T15:31:52;22.60;99.90
18577;DHT22;9418;52.694;13.294;2022-10-17T15:34:19;22.50;99.90
18577;DHT22;9418;52.694;13.294;2022-10-17T15:36:48;22.50;99.40
18577;DHT22;9418;52.694;13.294;2022-10-17T15:39:16;22.40;99.10
18577;DHT22;9418;52.694;13.294;2022-10-17T15:41:43;22.40;97.40
18577;DHT22;9418;52.694;13.294;2022-10-17T15:44:10;22.30;97.00
18577;DHT22;9418;52.694;13.294;2022-10-17T15:46:38;22.20;95.60
18577;DHT22;9418;52.694;13.294;2022-10-17T15:49:09;22.20;93.60
18577;DHT22;9418;52.694;13.294;2022-10-17T15:51:36;22.20;92.10
18577;DHT22;9418;52.694;13.294;2022-10-17T15:54:03;22.10;91.10
18577;DHT22;9418;52.694;13.294;2022-10-17T15:56:33;22.10;89.70